createdAt,value
2022-08-19T00:02:26.004Z,99.90
2022-08-19T00:04:56.425Z,99.90
2022-08-19T00:07:28.411Z,99.90
2022-08-19T00:09:59.361Z,99.90
2022-08-19T00:12:30.060Z,99.90
2022-08-19T00:15:00.537Z,99.90
2022-08-19T00:17:30.948Z,99.90
2022-08-19T00:20:01.843Z,99.90
2022-08-19T00:22:34.881Z,99.90
2022-08-19T00:25:05.575Z,99.90
2022-08-19T00:27:38.086Z,99.90
2022-08-19T00:30:12.029Z,99.90
2022-08-19T00:32:42.763Z,99.90
2022-08-19T00:35:13.629Z,99.90
2022-08-19T00:37:46.535Z,99.90
2022-08-19T00:40:17.355Z,99.90
2022-08-19T00:42:48.125Z,99.90
2022-08-19T00:45:20.647Z,99.90
2022-08-19T00:47:50.970Z,99.90
2022-08-19T00:50:24.689Z,99.90
2022-08-19T00:52:56.795Z,99.90
2022-08-19T00:55:31.554Z,99.90
2022-08-19T00:58:06.614Z,99.90
2022-08-19T01:00:37.131Z,99.90
2022-08-19T01:03:10.633Z,99.90
2022-08-19T01:05:42.906Z,99.90
2022-08-19T01:08:15.513Z,99.90
2022-08-19T01:10:49.683Z,99.90
2022-08-19T01:13:22.444Z,99.90
2022-08-19T01:15:58.626Z,99.90
2022-08-19T01:18:31.799Z,99.90
2022-08-19T01:21:09.429Z,99.90
2022-08-19T01:23:50.714Z,99.90
2022-08-19T01:26:24.737Z,99.90
2022-08-19T01:29:00.716Z,99.90
2022-08-19T01:31:34.385Z,99.90
2022-08-19T01:34:05.470Z,99.90
2022-08-19T01:36:39.373Z,99.90
2022-08-19T01:39:14.579Z,99.90
2022-08-19T01:41:45.758Z,99.90
2022-08-19T01:44:18.345Z,99.90
2022-08-19T01:46:52.121Z,99.90
2022-08-19T01:49:24.684Z,99.90
2022-08-19T01:51:55.475Z,99.90
2022-08-19T01:54:28.149Z,99.90
2022-08-19T01:57:03.527Z,99.90
2022-08-19T01:59:35.338Z,99.90
2022-08-19T02:02:08.539Z,99.90
2022-08-19T02:04:40.174Z,99.90
2022-08-19T02:07:11.228Z,99.90
2022-08-19T02:09:43.310Z,99.90
2022-08-19T02:12:13.776Z,99.90
2022-08-19T02:14:48.797Z,99.90
2022-08-19T02:17:19.959Z,99.90
2022-08-19T02:19:50.709Z,99.90
2022-08-19T02:22:21.630Z,99.90
2022-08-19T02:24:53.379Z,99.90
2022-08-19T02:27:23.682Z,99.90
2022-08-19T02:29:55.024Z,99.90
2022-08-19T02:32:25.402Z,99.90
2022-08-19T02:34:55.697Z,99.90
2022-08-19T02:37:43.047Z,99.90
2022-08-19T02:40:15.367Z,99.90
2022-08-19T02:42:45.469Z,99.90
2022-08-19T02:45:16.261Z,99.90
2022-08-19T02:47:46.773Z,99.90
2022-08-19T02:50:17.103Z,99.90
2022-08-19T02:52:47.355Z,99.90
2022-08-19T02:55:19.387Z,99.90
2022-08-19T02:57:49.598Z,99.90
2022-08-19T03:00:19.832Z,99.90
2022-08-19T03:02:50.362Z,99.90
2022-08-19T03:05:20.622Z,99.90
2022-08-19T03:08:13.890Z,99.90
2022-08-19T03:10:47.880Z,99.90
2022-08-19T03:13:19.481Z,99.90
2022-08-19T03:15:51.260Z,99.90
2022-08-19T03:18:23.173Z,99.90
2022-08-19T03:20:56.145Z,99.90
2022-08-19T03:23:27.375Z,99.90
2022-08-19T03:26:16.183Z,99.90
2022-08-19T03:28:57.709Z,99.90
2022-08-19T03:31:44.795Z,99.90
2022-08-19T03:34:23.113Z,99.90
2022-08-19T03:36:53.357Z,99.90
2022-08-19T03:39:23.777Z,99.90
2022-08-19T03:42:31.844Z,99.90
2022-08-19T03:44:48.979Z,99.90
2022-08-19T03:47:19.219Z,99.90
2022-08-19T03:49:49.473Z,99.90
2022-08-19T03:52:19.712Z,99.90
2022-08-19T03:54:49.781Z,99.90
2022-08-19T03:57:21.426Z,99.90
2022-08-19T03:59:55.377Z,99.90
2022-08-19T04:02:34.400Z,99.90
2022-08-19T04:05:04.629Z,99.90
2022-08-19T04:07:34.634Z,99.90
2022-08-19T04:10:05.068Z,99.90
2022-08-19T04:12:37.508Z,99.90
2022-08-19T04:15:08.222Z,99.90
2022-08-19T04:17:38.591Z,99.90
2022-08-19T04:20:09.425Z,99.90
2022-08-19T04:22:39.836Z,99.90
2022-08-19T04:25:10.413Z,99.90
2022-08-19T04:27:48.174Z,99.90
2022-08-19T04:30:19.753Z,99.90
2022-08-19T04:32:49.790Z,99.90
2022-08-19T04:35:23.161Z,99.90
2022-08-19T04:37:55.236Z,99.90
2022-08-19T04:40:42.334Z,99.90
2022-08-19T04:43:17.132Z,99.90
2022-08-19T04:45:47.977Z,99.90
2022-08-19T04:48:26.188Z,99.90
2022-08-19T04:50:59.413Z,99.90
2022-08-19T04:53:37.694Z,99.90
2022-08-19T04:56:11.400Z,99.90
2022-08-19T04:58:45.007Z,99.90
2022-08-19T05:01:16.760Z,99.90
2022-08-19T05:03:47.113Z,99.90
2022-08-19T05:06:19.518Z,99.90
2022-08-19T05:08:50.409Z,99.90
2022-08-19T05:11:26.384Z,99.90
2022-08-19T05:13:59.307Z,99.90
2022-08-19T05:16:30.630Z,99.90
2022-08-19T05:19:17.892Z,99.90
2022-08-19T05:22:05.505Z,99.90
2022-08-19T05:24:41.340Z,99.90
2022-08-19T05:27:21.646Z,99.90
2022-08-19T05:29:53.243Z,99.90
2022-08-19T05:32:23.366Z,99.90
2022-08-19T05:34:53.412Z,99.90
2022-08-19T05:37:23.862Z,99.90
2022-08-19T05:39:53.902Z,99.90
2022-08-19T05:42:24.843Z,99.90
2022-08-19T05:44:57.650Z,99.90
2022-08-19T05:47:28.003Z,99.90
2022-08-19T05:49:58.145Z,99.90
2022-08-19T05:52:29.914Z,99.90
2022-08-19T05:55:01.310Z,99.90
2022-08-19T05:57:32.099Z,99.90
2022-08-19T06:00:09.401Z,99.90
2022-08-19T06:02:39.621Z,99.90
2022-08-19T06:05:11.297Z,99.90
2022-08-19T06:07:42.506Z,99.90
2022-08-19T06:10:14.499Z,99.90
2022-08-19T06:12:44.618Z,99.90
2022-08-19T06:15:17.675Z,99.90
2022-08-19T06:17:48.076Z,99.90
2022-08-19T06:20:39.754Z,99.90
2022-08-19T06:23:10.409Z,99.90
2022-08-19T06:25:46.270Z,99.90
2022-08-19T06:28:16.786Z,99.90
2022-08-19T06:30:48.955Z,99.90
2022-08-19T06:33:19.035Z,99.90
2022-08-19T06:35:49.343Z,99.90
2022-08-19T06:38:19.855Z,99.90
2022-08-19T06:40:49.889Z,99.90
2022-08-19T06:43:19.961Z,99.90
2022-08-19T06:45:54.016Z,99.90
2022-08-19T06:48:24.241Z,99.90
2022-08-19T06:50:56.299Z,99.90
2022-08-19T06:53:26.399Z,99.90
2022-08-19T06:56:01.817Z,99.90
2022-08-19T06:58:35.011Z,99.90
2022-08-19T07:01:09.213Z,99.90
2022-08-19T07:03:40.887Z,99.90
2022-08-19T07:06:26.646Z,99.90
2022-08-19T07:09:03.742Z,99.90
2022-08-19T07:11:34.254Z,99.90
2022-08-19T07:14:04.836Z,99.90
2022-08-19T07:16:37.352Z,99.90
2022-08-19T07:19:15.716Z,99.90
2022-08-19T07:21:46.488Z,99.90
2022-08-19T07:24:16.955Z,99.90
2022-08-19T07:26:51.586Z,99.90
2022-08-19T07:29:25.837Z,99.90
2022-08-19T07:32:00.957Z,99.90
2022-08-19T07:34:32.620Z,99.90
2022-08-19T07:37:02.638Z,99.90
2022-08-19T07:39:35.560Z,99.90
2022-08-19T07:42:09.430Z,99.90
2022-08-19T07:47:47.882Z,99.90
2022-08-19T07:50:02.387Z,99.90
2022-08-19T07:52:32.602Z,99.90
2022-08-19T07:55:05.433Z,99.90
2022-08-19T07:57:35.559Z,99.90
2022-08-19T08:00:07.193Z,99.90
2022-08-19T08:02:39.664Z,99.90
2022-08-19T08:05:27.165Z,99.90
2022-08-19T08:08:14.163Z,99.90
2022-08-19T08:10:44.423Z,99.90
2022-08-19T08:13:23.029Z,99.90
2022-08-19T08:15:53.315Z,99.90
2022-08-19T08:18:30.302Z,99.90
2022-08-19T08:21:02.485Z,99.90
2022-08-19T08:23:33.177Z,99.90
2022-08-19T08:26:03.992Z,99.90
2022-08-19T08:28:34.264Z,99.90
2022-08-19T08:31:09.673Z,99.90
2022-08-19T08:33:43.373Z,99.90
2022-08-19T08:36:14.955Z,99.90
2022-08-19T08:38:46.989Z,99.90
2022-08-19T08:41:25.967Z,99.90
2022-08-19T08:43:57.041Z,99.90
2022-08-19T08:46:33.581Z,99.90
2022-08-19T08:49:13.671Z,99.90
2022-08-19T08:51:59.255Z,99.90
2022-08-19T08:54:35.591Z,99.90
2022-08-19T08:57:09.827Z,99.90
2022-08-19T08:59:42.975Z,99.90
2022-08-19T09:02:13.431Z,99.90
2022-08-19T09:04:45.183Z,99.90
2022-08-19T09:07:34.977Z,99.90
2022-08-19T09:10:13.514Z,99.90
2022-08-19T09:12:51.665Z,99.90
2022-08-19T09:15:29.113Z,99.90
2022-08-19T09:18:07.127Z,99.90
2022-08-19T09:20:41.335Z,99.90
2022-08-19T09:23:13.917Z,99.90
2022-08-19T09:25:44.120Z,99.90
2022-08-19T09:28:22.046Z,99.90
2022-08-19T09:30:54.978Z,99.90
2022-08-19T09:33:25.295Z,99.90
2022-08-19T09:36:08.600Z,99.90
2022-08-19T09:38:43.575Z,99.90
2022-08-19T09:41:16.896Z,99.90
2022-08-19T09:43:51.159Z,99.90
2022-08-19T09:46:24.000Z,99.90
2022-08-19T09:48:54.835Z,99.90
2022-08-19T09:51:29.991Z,99.90
2022-08-19T09:54:04.907Z,99.90
2022-08-19T09:56:35.632Z,99.90
2022-08-19T09:59:07.185Z,99.90
2022-08-19T10:01:37.299Z,99.90
2022-08-19T10:04:19.718Z,99.90
2022-08-19T10:06:53.603Z,99.90
2022-08-19T10:09:26.279Z,99.90
2022-08-19T10:12:04.962Z,99.90
2022-08-19T10:14:36.502Z,99.90
2022-08-19T10:17:19.859Z,99.90
2022-08-19T10:19:55.298Z,99.90
2022-08-19T10:22:27.954Z,99.90
2022-08-19T10:24:58.147Z,99.90
2022-08-19T10:27:28.612Z,99.90
2022-08-19T10:30:02.901Z,99.90
2022-08-19T10:32:34.437Z,99.90
2022-08-19T10:35:07.537Z,99.90
2022-08-19T10:37:44.946Z,99.90
2022-08-19T10:40:28.395Z,99.90
2022-08-19T10:42:59.068Z,99.90
2022-08-19T10:45:29.187Z,99.90
2022-08-19T10:47:59.990Z,99.90
2022-08-19T10:50:47.179Z,99.90
2022-08-19T10:53:19.540Z,99.90
2022-08-19T10:56:07.472Z,99.90
2022-08-19T10:58:37.599Z,99.90
2022-08-19T11:01:07.185Z,99.90
2022-08-19T11:03:36.689Z,99.90
2022-08-19T11:06:07.605Z,99.90
2022-08-19T11:08:39.155Z,99.90
2022-08-19T11:11:09.456Z,99.90
2022-08-19T11:13:39.665Z,99.90
2022-08-19T11:16:10.172Z,99.90
2022-08-19T11:18:40.472Z,99.90
2022-08-19T11:21:18.590Z,99.90
2022-08-19T11:23:53.747Z,99.90
2022-08-19T11:26:24.421Z,99.90
2022-08-19T11:28:55.802Z,99.90
2022-08-19T11:31:29.146Z,99.90
2022-08-19T11:34:01.316Z,99.90
2022-08-19T11:36:32.971Z,99.90
2022-08-19T11:39:05.832Z,99.90
2022-08-19T11:41:36.424Z,99.90
2022-08-19T11:44:09.262Z,99.90
2022-08-19T11:46:40.651Z,99.90
2022-08-19T11:49:13.999Z,99.90
2022-08-19T11:51:45.129Z,99.90
2022-08-19T11:54:17.726Z,99.90
2022-08-19T11:56:50.735Z,99.90
2022-08-19T11:59:20.699Z,99.90
2022-08-19T12:01:50.900Z,99.90
2022-08-19T12:04:20.881Z,99.90
2022-08-19T12:06:51.654Z,99.90
2022-08-19T12:11:57.906Z,99.90
2022-08-19T12:14:29.540Z,99.90
2022-08-19T12:16:59.692Z,99.90
2022-08-19T12:19:29.976Z,99.90
2022-08-19T12:22:04.806Z,99.90
2022-08-19T12:24:34.551Z,99.90
2022-08-19T12:27:06.156Z,99.90
2022-08-19T12:29:43.182Z,99.90
2022-08-19T12:32:13.080Z,99.90
2022-08-19T12:34:43.049Z,99.90
2022-08-19T12:37:12.603Z,99.90
2022-08-19T12:39:43.466Z,99.90
2022-08-19T12:42:15.333Z,99.90
2022-08-19T12:44:45.402Z,99.90
2022-08-19T12:47:16.597Z,99.90
2022-08-19T12:49:54.093Z,99.90
2022-08-19T12:52:25.913Z,99.90
2022-08-19T12:54:56.854Z,99.90
2022-08-19T12:57:32.925Z,99.90
2022-08-19T13:00:05.106Z,99.90
2022-08-19T13:02:38.298Z,99.90
2022-08-19T13:05:10.242Z,99.90
2022-08-19T13:07:40.137Z,99.90
2022-08-19T13:10:10.759Z,99.90
2022-08-19T13:12:42.931Z,99.90
2022-08-19T13:15:15.187Z,99.90
2022-08-19T13:17:44.816Z,99.90
2022-08-19T13:20:22.234Z,99.90
2022-08-19T13:22:52.692Z,99.90
2022-08-19T13:25:22.860Z,99.90
2022-08-19T13:27:54.254Z,99.90
2022-08-19T13:30:41.412Z,99.90
2022-08-19T13:33:16.267Z,99.90
2022-08-19T13:35:47.677Z,99.90
2022-08-19T13:38:18.059Z,99.90
2022-08-19T13:40:48.051Z,99.90
2022-08-19T13:43:22.951Z,99.90
2022-08-19T13:45:54.205Z,99.90
2022-08-19T13:48:23.703Z,99.90
2022-08-19T13:50:53.310Z,99.90
2022-08-19T13:53:23.081Z,99.90
2022-08-19T13:55:55.150Z,99.90
2022-08-19T13:58:26.525Z,99.90
2022-08-19T14:00:56.400Z,99.90
2022-08-19T14:03:26.278Z,99.90
2022-08-19T14:05:56.422Z,99.90
2022-08-19T14:08:26.469Z,99.90
2022-08-19T14:10:56.340Z,99.90
2022-08-19T14:13:27.830Z,99.90
2022-08-19T14:15:57.480Z,99.90
2022-08-19T14:18:29.289Z,99.90
2022-08-19T14:21:00.671Z,99.90
2022-08-19T14:23:30.128Z,99.90
2022-08-19T14:26:06.544Z,99.90
2022-08-19T14:28:37.859Z,99.90
2022-08-19T14:31:07.677Z,99.90
2022-08-19T14:33:37.182Z,99.90
2022-08-19T14:36:07.478Z,99.90
2022-08-19T14:38:38.127Z,99.90
2022-08-19T14:41:11.763Z,99.90
2022-08-19T14:43:43.175Z,99.90
2022-08-19T14:46:14.283Z,99.90
2022-08-19T14:48:46.729Z,99.90
2022-08-19T14:51:20.816Z,99.90
2022-08-19T14:53:52.148Z,99.90
2022-08-19T14:56:23.634Z,99.90
2022-08-19T14:58:55.299Z,99.90
2022-08-19T15:01:25.399Z,99.90
2022-08-19T15:03:56.291Z,99.90
2022-08-19T15:06:26.315Z,99.90
2022-08-19T15:08:58.643Z,99.90
2022-08-19T15:11:33.958Z,99.90
2022-08-19T15:14:07.051Z,99.90
2022-08-19T15:16:37.555Z,99.90
2022-08-19T15:19:07.511Z,99.90
2022-08-19T15:21:37.952Z,99.90
2022-08-19T15:24:08.248Z,99.90
2022-08-19T15:26:38.023Z,99.90
2022-08-19T15:29:09.453Z,99.90
2022-08-19T15:31:39.006Z,99.90
2022-08-19T15:34:09.605Z,99.90
2022-08-19T15:36:39.945Z,99.90
2022-08-19T15:39:10.970Z,99.90
2022-08-19T15:41:41.700Z,99.90
2022-08-19T15:44:14.126Z,99.90
2022-08-19T15:46:44.992Z,99.90
2022-08-19T15:49:15.401Z,99.90
2022-08-19T15:51:47.511Z,99.90
2022-08-19T15:54:18.516Z,99.90
2022-08-19T15:57:08.801Z,99.90
2022-08-19T16:00:00.755Z,99.90
2022-08-19T16:02:49.279Z,99.90
2022-08-19T16:05:41.094Z,99.90
2022-08-19T16:08:11.299Z,99.90
2022-08-19T16:10:41.907Z,99.90
2022-08-19T16:13:11.639Z,99.90
2022-08-19T16:15:45.106Z,99.90
2022-08-19T16:18:14.592Z,99.90
2022-08-19T16:20:45.035Z,99.90
2022-08-19T16:23:14.628Z,99.90
2022-08-19T16:25:44.510Z,99.90
2022-08-19T16:28:13.968Z,99.90
2022-08-19T16:30:48.409Z,99.90
2022-08-19T16:33:23.243Z,99.90
2022-08-19T16:35:56.096Z,99.90
2022-08-19T16:38:30.082Z,99.90
2022-08-19T16:41:01.282Z,99.90
2022-08-19T16:43:31.983Z,99.90
2022-08-19T16:46:03.186Z,99.90
2022-08-19T16:48:33.737Z,99.90
2022-08-19T16:51:03.625Z,99.90
2022-08-19T16:53:33.162Z,99.90
2022-08-19T16:56:02.791Z,99.90
2022-08-19T16:58:34.812Z,99.90
2022-08-19T17:01:07.360Z,99.90
2022-08-19T17:03:40.721Z,99.90
2022-08-19T17:06:18.257Z,99.90
2022-08-19T17:08:50.839Z,99.90
2022-08-19T17:11:21.800Z,99.90
2022-08-19T17:13:52.323Z,99.90
2022-08-19T17:16:25.435Z,99.90
2022-08-19T17:18:55.022Z,99.90
2022-08-19T17:21:26.104Z,99.90
2022-08-19T17:23:56.118Z,99.90
2022-08-19T17:37:52.785Z,99.90
2022-08-19T17:40:23.782Z,99.90
2022-08-19T17:42:55.086Z,99.90
2022-08-19T17:45:25.846Z,99.90
2022-08-19T17:47:56.334Z,99.90
2022-08-19T17:50:26.491Z,99.90
2022-08-19T17:52:57.762Z,99.90
2022-08-19T17:55:27.466Z,99.90
2022-08-19T17:57:58.115Z,99.90
2022-08-19T18:00:28.209Z,99.90
2022-08-19T18:02:59.467Z,99.90
2022-08-19T18:05:33.003Z,99.90
2022-08-19T18:08:09.889Z,99.90
2022-08-19T18:10:40.004Z,99.90
2022-08-19T18:13:16.976Z,99.90
2022-08-19T18:15:48.100Z,99.90
2022-08-19T18:18:18.035Z,99.90
2022-08-19T18:20:48.199Z,99.90
2022-08-19T18:23:45.370Z,99.90
2022-08-19T18:26:09.321Z,99.90
2022-08-19T18:28:49.592Z,99.90
2022-08-19T18:31:19.766Z,99.90
2022-08-19T18:33:53.097Z,99.90
2022-08-19T18:36:43.596Z,99.90
2022-08-19T18:39:31.329Z,99.90
2022-08-19T18:42:18.118Z,99.90
2022-08-19T18:45:04.923Z,99.90
2022-08-19T18:47:51.335Z,99.90
2022-08-19T18:50:20.977Z,99.90
2022-08-19T18:52:50.533Z,99.90
2022-08-19T18:55:24.122Z,99.90
2022-08-19T18:57:54.330Z,99.90
2022-08-19T19:00:24.098Z,98.70
2022-08-19T19:02:55.306Z,98.90
2022-08-19T19:05:25.183Z,99.70
2022-08-19T19:07:55.392Z,99.30
2022-08-19T19:10:26.746Z,99.90
2022-08-19T19:12:56.442Z,99.70
2022-08-19T19:15:26.248Z,98.80
2022-08-19T19:17:56.343Z,97.80
2022-08-19T19:20:35.270Z,97.60
2022-08-19T19:23:06.379Z,96.50
2022-08-19T19:25:50.730Z,96.50
2022-08-19T19:28:28.066Z,96.50
2022-08-19T19:30:59.829Z,97.50
2022-08-19T19:33:30.020Z,96.80
2022-08-19T19:36:00.210Z,95.90
2022-08-19T19:38:29.750Z,95.70
2022-08-19T19:41:01.161Z,97.30
2022-08-19T19:43:34.820Z,93.80
2022-08-19T19:46:10.783Z,94.00
2022-08-19T19:48:40.361Z,92.80
2022-08-19T19:51:10.253Z,94.10
2022-08-19T19:53:40.333Z,93.20
2022-08-19T19:56:12.060Z,93.90
2022-08-19T19:58:42.399Z,94.20
2022-08-19T20:01:13.483Z,93.40
2022-08-19T20:03:50.880Z,91.20
2022-08-19T20:06:20.699Z,92.20
2022-08-19T20:09:07.004Z,91.90
2022-08-19T20:11:40.370Z,92.90
2022-08-19T20:14:12.308Z,92.60
2022-08-19T20:16:44.182Z,92.50
2022-08-19T20:19:15.428Z,93.30
2022-08-19T20:21:48.516Z,93.20
2022-08-19T20:24:23.202Z,94.20
2022-08-19T20:26:55.784Z,94.10
2022-08-19T20:29:39.314Z,94.20
2022-08-19T20:32:11.518Z,93.30
2022-08-19T20:34:41.576Z,92.70
2022-08-19T20:37:11.527Z,94.10
2022-08-19T20:39:41.932Z,92.60
2022-08-19T20:42:33.164Z,94.30
2022-08-19T20:45:33.240Z,94.10
2022-08-19T20:48:03.894Z,93.40
2022-08-19T20:50:34.156Z,93.80
2022-08-19T20:53:06.179Z,94.00
2022-08-19T20:55:36.296Z,91.30
2022-08-19T20:58:05.852Z,92.00
2022-08-19T21:00:38.064Z,93.00
2022-08-19T21:03:09.024Z,93.20
2022-08-19T21:05:39.052Z,93.00
2022-08-19T21:08:09.916Z,93.80
2022-08-19T21:10:42.297Z,93.60
2022-08-19T21:13:12.901Z,92.70
2022-08-19T21:15:45.194Z,92.70
2022-08-19T21:18:15.709Z,93.40
2022-08-19T21:20:45.913Z,92.10
2022-08-19T21:23:17.154Z,91.60
2022-08-19T21:25:54.460Z,92.00
2022-08-19T21:28:34.596Z,91.90
2022-08-19T21:31:11.141Z,93.00
2022-08-19T21:33:41.486Z,92.10
2022-08-19T21:36:13.285Z,92.70
2022-08-19T21:38:43.016Z,92.10
2022-08-19T21:41:14.699Z,93.20
2022-08-19T21:43:44.361Z,93.10
2022-08-19T21:46:15.784Z,93.50
2022-08-19T21:48:45.361Z,93.20
2022-08-19T21:51:14.982Z,93.30
2022-08-19T21:53:46.569Z,93.70
2022-08-19T21:56:18.341Z,93.40
2022-08-19T21:58:48.120Z,93.70
2022-08-19T22:01:19.424Z,93.40
2022-08-19T22:03:49.134Z,93.20
2022-08-19T22:06:18.745Z,93.70
2022-08-19T22:08:48.460Z,95.10
2022-08-19T22:11:18.118Z,94.50
2022-08-19T22:13:47.878Z,93.80
2022-08-19T22:16:19.147Z,94.50
2022-08-19T22:18:48.811Z,95.10
2022-08-19T22:21:20.254Z,96.00
2022-08-19T22:24:09.703Z,94.00
2022-08-19T22:26:39.388Z,94.80
2022-08-19T22:29:08.978Z,93.60
2022-08-19T22:31:40.238Z,94.00
2022-08-19T22:34:10.369Z,95.00
2022-08-19T22:36:40.105Z,95.80
2022-08-19T22:39:10.551Z,96.00
2022-08-19T22:41:41.464Z,96.80
2022-08-19T22:44:12.030Z,97.10
2022-08-19T22:46:43.314Z,98.90
2022-08-19T22:49:12.978Z,98.90
2022-08-19T22:51:59.508Z,99.50
2022-08-19T22:54:29.130Z,99.80
2022-08-19T22:56:58.696Z,99.50
2022-08-19T22:59:28.321Z,99.50
2022-08-19T23:01:59.709Z,99.60
2022-08-19T23:04:29.545Z,99.90
2022-08-19T23:06:59.132Z,99.90
2022-08-19T23:09:31.518Z,99.90
2022-08-19T23:12:01.547Z,99.90
2022-08-19T23:14:31.463Z,99.90
2022-08-19T23:17:03.639Z,99.90
2022-08-19T23:19:33.834Z,99.90
2022-08-19T23:22:03.817Z,99.90
2022-08-19T23:24:36.739Z,99.90
2022-08-19T23:27:23.388Z,99.90
2022-08-19T23:30:11.688Z,99.90
2022-08-19T23:32:43.767Z,99.90
2022-08-19T23:35:16.474Z,99.90
2022-08-19T23:37:46.983Z,99.90
2022-08-19T23:40:17.893Z,99.90
2022-08-19T23:42:48.421Z,99.90
2022-08-19T23:45:23.700Z,99.90
2022-08-19T23:47:57.542Z,99.90
2022-08-19T23:50:29.459Z,99.90
2022-08-19T23:53:02.378Z,99.90
2022-08-19T23:55:35.623Z,99.90
2022-08-19T23:58:08.541Z,99.90
